sensor_id;sensor_type;location;lat;lon;timestamp;temperature;humidity
7413;DHT22;3748;48.136;11.538;2022-12-15T00:02:17;0.10;99.90
7413;DHT22;3748;48.136;11.538;2022-12-15T00:05:01;0.10;99.90
7413;DHT22;3748;48.136;11.538;2022-12-15T00:07:45;0.10;99.90
7413;DHT22;3748;48.136;11.538;2022-12-15T00:10:31;0.30;99.90
7413;DHT22;3748;48.136;11.538;2022-12-15T00:13:15;0.00;99.90
7413;DHT22;3748;48.136;11.538;2022-12-15T00:16:00;0.00;99.90
7413;DHT22;3748;48.136;11.538;2022-12-15T00:18:45;0.00;99.90
7413;DHT22;3748;48.136;11.538;2022-12-15T00:21:29;0.00;99.90
7413;DHT22;3748;48.136;11.538;2022-12-15T00:24:14;0.10;99.90
7413;DHT22;3748;48.136;11.538;2022-12-15T00:27:00;0.00;99.90
7413;DHT22;3748;48.136;11.538;2022-12-15T00:29:46;0.00;99.90
7413;DHT22;3748;48.136;11.538;2022-12-15T00:32:30;0.20;99.90
7413;DHT22;3748;48.136;11.538;2022-12-15T00:35:15;-0.20;99.90
7413;DHT22;3748;48.136;11.538;2022-12-15T00:38:05;-0.10;99.90
7413;DHT22;3748;48.136;11.538;2022-12-15T00:40:50;-0.10;99.90
7413;DHT22;3748;48.136;11.538;2022-12-15T00:43:25;-0.10;99.90
7413;DHT22;3748;48.136;11.538;2022-12-15T00:45:52;-0.20;99.90
7413;DHT22;3748;48.136;11.538;2022-12-15T00:48:36;-0.20;99.90
7413;DHT22;3748;48.136;11.538;2022-12-15T00:51:04;-0.20;99.90
7413;DHT22;3748;48.136;11.538;2022-12-15T00:53:29;-0.20;99.90
7413;DHT22;3748;48.136;11.538;2022-12-15T00:56:14;0.20;99.90
7413;DHT22;3748;48.136;11.538;2022-12-15T00:59:00;-0.30;99.90
7413;DHT22;3748;48.136;11.538;2022-12-15T01:01:44;-0.30;99.90
7413;DHT22;3748;48.136;11.538;2022-12-15T01:04:28;-0.30;99.90
7413;DHT22;3748;48.136;11.538;2022-12-15T01:07:20;-0.30;99.90
7413;DHT22;3748;48.136;11.538;2022-12-15T01:10:06;-0.30;99.90
7413;DHT22;3748;48.136;11.538;2022-12-15T01:12:50;-0.30;99.90
7413;DHT22;3748;48.136;11.538;2022-12-15T01:15:36;-0.30;99.90
7413;DHT22;3748;48.136;11.538;2022-12-15T01:18:21;-0.30;99.90
7413;DHT22;3748;48.136;11.538;2022-12-15T01:21:07;0.40;99.90
7413;DHT22;3748;48.136;11.538;2022-12-15T01:23:34;-0.30;99.90
7413;DHT22;3748;48.136;11.538;2022-12-15T01:26:02;-0.10;99.90
7413;DHT22;3748;48.136;11.538;2022-12-15T01:28:29;-0.30;99.90
7413;DHT22;3748;48.136;11.538;2022-12-15T01:30:58;-0.30;99.90
7413;DHT22;3748;48.136;11.538;2022-12-15T01:33:25;0.50;99.90
7413;DHT22;3748;48.136;11.538;2022-12-15T01:35:56;0.00;99.90
7413;DHT22;3748;48.136;11.538;2022-12-15T01:38:25;0.10;99.90
7413;DHT22;3748;48.136;11.538;2022-12-15T01:40:55;-0.30;99.90
7413;DHT22;3748;48.136;11.538;2022-12-15T01:43:26;-0.30;99.90
7413;DHT22;3748;48.136;11.538;2022-12-15T01:46:05;-0.40;99.90
7413;DHT22;3748;48.136;11.538;2022-12-15T01:48:40;-0.30;99.90
7413;DHT22;3748;48.136;11.538;2022-12-15T01:51:24;-0.30;99.90
7413;DHT22;3748;48.136;11.538;2022-12-15T01:53:56;-0.30;99.90
7413;DHT22;3748;48.136;11.538;2022-12-15T01:56:25;-0.40;99.90
7413;DHT22;3748;48.136;11.538;2022-12-15T01:58:55;-0.30;99.90
7413;DHT22;3748;48.136;11.538;2022-12-15T02:01:28;-0.10;99.90
7413;DHT22;3748;48.136;11.538;2022-12-15T02:03:55;-0.30;99.90
7413;DHT22;3748;48.136;11.538;2022-12-15T02:06:24;-0.40;99.90
7413;DHT22;3748;48.136;11.538;2022-12-15T02:08:53;-0.30;99.90
7413;DHT22;3748;48.136;11.538;2022-12-15T02:11:42;-0.50;99.90
7413;DHT22;3748;48.136;11.538;2022-12-15T02:14:13;-0.50;99.90
7413;DHT22;3748;48.136;11.538;2022-12-15T02:16:55;-0.50;99.90
7413;DHT22;3748;48.136;11.538;2022-12-15T02:19:52;-0.50;99.90
7413;DHT22;3748;48.136;11.538;2022-12-15T02:22:31;-0.40;99.90
7413;DHT22;3748;48.136;11.538;2022-12-15T02:25:15;-0.10;99.90
7413;DHT22;3748;48.136;11.538;2022-12-15T02:30:47;-0.60;99.90
7413;DHT22;3748;48.136;11.538;2022-12-15T02:33:40;-0.60;99.90
7413;DHT22;3748;48.136;11.538;2022-12-15T02:36:15;-0.20;99.90
7413;DHT22;3748;48.136;11.538;2022-12-15T02:38:43;-0.80;99.90
7413;DHT22;3748;48.136;11.538;2022-12-15T02:41:35;-0.70;99.90
7413;DHT22;3748;48.136;11.538;2022-12-15T02:44:08;-0.60;99.90
7413;DHT22;3748;48.136;11.538;2022-12-15T02:46:48;-0.40;99.90
7413;DHT22;3748;48.136;11.538;2022-12-15T02:49:24;-0.30;99.90
7413;DHT22;3748;48.136;11.538;2022-12-15T02:52:00;-0.60;99.90
7413;DHT22;3748;48.136;11.538;2022-12-15T02:54:37;-0.50;99.90
7413;DHT22;3748;48.136;11.538;2022-12-15T02:57:14;-0.40;99.90
7413;DHT22;3748;48.136;11.538;2022-12-15T02:59:48;-0.60;99.90
7413;DHT22;3748;48.136;11.538;2022-12-15T03:02:22;0.20;99.90
7413;DHT22;3748;48.136;11.538;2022-12-15T03:04:50;-0.70;99.90
7413;DHT22;3748;48.136;11.538;2022-12-15T03:12:30;-0.70;99.90
7413;DHT22;3748;48.136;11.538;2022-12-15T03:14:57;-0.40;99.90
7413;DHT22;3748;48.136;11.538;2022-12-15T03:17:33;-0.80;99.90
7413;DHT22;3748;48.136;11.538;2022-12-15T03:20:00;-0.60;99.90
7413;DHT22;3748;48.136;11.538;2022-12-15T03:22:27;-0.30;99.90
7413;DHT22;3748;48.136;11.538;2022-12-15T03:24:54;-0.30;99.90
7413;DHT22;3748;48.136;11.538;2022-12-15T03:27:20;-0.50;99.90
7413;DHT22;3748;48.136;11.538;2022-12-15T03:29:51;-0.80;99.90
7413;DHT22;3748;48.136;11.538;2022-12-15T03:32:18;-0.80;99.90
7413;DHT22;3748;48.136;11.538;2022-12-15T03:34:46;-0.50;99.90
7413;DHT22;3748;48.136;11.538;2022-12-15T03:37:13;-0.20;99.90
7413;DHT22;3748;48.136;11.538;2022-12-15T03:39:40;-0.80;99.90
7413;DHT22;3748;48.136;11.538;2022-12-15T03:42:16;-0.70;99.90
7413;DHT22;3748;48.136;11.538;2022-12-15T03:45:04;-0.80;99.90
7413;DHT22;3748;48.136;11.538;2022-12-15T03:47:31;-0.80;99.90
7413;DHT22;3748;48.136;11.538;2022-12-15T03:50:00;-0.80;99.90
7413;DHT22;3748;48.136;11.538;2022-12-15T03:52:26;-0.80;99.90
7413;DHT22;3748;48.136;11.538;2022-12-15T03:54:53;-0.80;99.90
7413;DHT22;3748;48.136;11.538;2022-12-15T03:57:20;-0.80;99.90
7413;DHT22;3748;48.136;11.538;2022-12-15T03:59:55;-0.20;99.90
7413;DHT22;3748;48.136;11.538;2022-12-15T04:02:22;-0.80;99.90
7413;DHT22;3748;48.136;11.538;2022-12-15T04:04:48;-0.80;99.90
7413;DHT22;3748;48.136;11.538;2022-12-15T04:07:17;-0.90;99.90
7413;DHT22;3748;48.136;11.538;2022-12-15T04:09:45;-0.90;99.90
7413;DHT22;3748;48.136;11.538;2022-12-15T04:12:12;-1.10;99.90
7413;DHT22;3748;48.136;11.538;2022-12-15T04:14:39;-1.00;99.90
7413;DHT22;3748;48.136;11.538;2022-12-15T04:17:07;-0.90;99.90
7413;DHT22;3748;48.136;11.538;2022-12-15T04:19:34;-0.90;99.90
7413;DHT22;3748;48.136;11.538;2022-12-15T04:22:20;-0.50;99.90
7413;DHT22;3748;48.136;11.538;2022-12-15T04:24:47;-0.90;99.90
7413;DHT22;3748;48.136;11.538;2022-12-15T04:27:32;-0.80;99.90
7413;DHT22;3748;48.136;11.538;2022-12-15T04:30:16;-0.70;99.90
7413;DHT22;3748;48.136;11.538;2022-12-15T04:33:01;-0.90;99.90
7413;DHT22;3748;48.136;11.538;2022-12-15T04:35:46;-0.90;99.90
7413;DHT22;3748;48.136;11.538;2022-12-15T04:38:34;-0.90;99.90
7413;DHT22;3748;48.136;11.538;2022-12-15T04:41:20;-0.90;99.90
7413;DHT22;3748;48.136;11.538;2022-12-15T04:44:06;-0.90;99.90
7413;DHT22;3748;48.136;11.538;2022-12-15T04:46:51;-1.00;99.90
7413;DHT22;3748;48.136;11.538;2022-12-15T04:49:35;-0.90;99.90
7413;DHT22;3748;48.136;11.538;2022-12-15T04:52:19;-0.50;99.90
7413;DHT22;3748;48.136;11.538;2022-12-15T04:55:07;-1.00;99.90
7413;DHT22;3748;48.136;11.538;2022-12-15T04:57:52;-1.10;99.90
7413;DHT22;3748;48.136;11.538;2022-12-15T05:00:36;-0.60;99.90
7413;DHT22;3748;48.136;11.538;2022-12-15T05:03:20;-1.00;99.90
7413;DHT22;3748;48.136;11.538;2022-12-15T05:06:05;-0.80;99.90
7413;DHT22;3748;48.136;11.538;2022-12-15T05:08:49;-1.00;99.90
7413;DHT22;3748;48.136;11.538;2022-12-15T05:11:35;-1.20;99.90
7413;DHT22;3748;48.136;11.538;2022-12-15T05:14:20;-0.60;99.90
7413;DHT22;3748;48.136;11.538;2022-12-15T05:17:04;-1.00;99.90
7413;DHT22;3748;48.136;11.538;2022-12-15T05:19:48;-0.90;99.90
7413;DHT22;3748;48.136;11.538;2022-12-15T05:22:33;-0.90;99.90
7413;DHT22;3748;48.136;11.538;2022-12-15T05:25:17;-0.90;99.90
7413;DHT22;3748;48.136;11.538;2022-12-15T05:28:06;-0.90;99.90
7413;DHT22;3748;48.136;11.538;2022-12-15T05:30:50;-0.80;99.90
7413;DHT22;3748;48.136;11.538;2022-12-15T05:33:34;-0.90;99.90
7413;DHT22;3748;48.136;11.538;2022-12-15T05:36:02;-1.10;99.90
7413;DHT22;3748;48.136;11.538;2022-12-15T05:38:29;-1.00;99.90
7413;DHT22;3748;48.136;11.538;2022-12-15T05:40:56;-0.90;99.90
7413;DHT22;3748;48.136;11.538;2022-12-15T05:46:33;-0.90;99.90
7413;DHT22;3748;48.136;11.538;2022-12-15T05:49:01;-0.90;99.90
7413;DHT22;3748;48.136;11.538;2022-12-15T05:51:28;-0.30;99.90
7413;DHT22;3748;48.136;11.538;2022-12-15T05:53:55;-0.80;99.90
7413;DHT22;3748;48.136;11.538;2022-12-15T05:56:24;-1.00;99.90
7413;DHT22;3748;48.136;11.538;2022-12-15T05:58:52;-0.90;99.90
7413;DHT22;3748;48.136;11.538;2022-12-15T06:01:19;-1.00;99.90
7413;DHT22;3748;48.136;11.538;2022-12-15T06:03:48;-1.10;99.90
7413;DHT22;3748;48.136;11.538;2022-12-15T06:06:16;-1.10;99.90
7413;DHT22;3748;48.136;11.538;2022-12-15T06:08:44;-1.10;99.90
7413;DHT22;3748;48.136;11.538;2022-12-15T06:11:12;-0.30;99.90
7413;DHT22;3748;48.136;11.538;2022-12-15T06:13:39;-1.00;99.90
7413;DHT22;3748;48.136;11.538;2022-12-15T06:16:10;-1.00;99.90
7413;DHT22;3748;48.136;11.538;2022-12-15T06:18:40;-1.00;99.90
7413;DHT22;3748;48.136;11.538;2022-12-15T06:21:11;-1.00;99.90
7413;DHT22;3748;48.136;11.538;2022-12-15T06:23:39;-0.40;99.90
7413;DHT22;3748;48.136;11.538;2022-12-15T06:26:11;-1.00;99.90
7413;DHT22;3748;48.136;11.538;2022-12-15T06:28:46;-1.00;99.90
7413;DHT22;3748;48.136;11.538;2022-12-15T06:31:15;-1.10;99.90
7413;DHT22;3748;48.136;11.538;2022-12-15T06:33:42;-1.10;99.90
7413;DHT22;3748;48.136;11.538;2022-12-15T06:36:12;-0.40;99.90
7413;DHT22;3748;48.136;11.538;2022-12-15T06:38:40;-1.10;99.90
7413;DHT22;3748;48.136;11.538;2022-12-15T06:41:08;-0.30;99.90
7413;DHT22;3748;48.136;11.538;2022-12-15T06:43:36;-1.00;99.90
7413;DHT22;3748;48.136;11.538;2022-12-15T06:46:03;-0.60;99.90
7413;DHT22;3748;48.136;11.538;2022-12-15T06:48:30;-0.90;99.90
7413;DHT22;3748;48.136;11.538;2022-12-15T06:51:01;-0.90;99.90
7413;DHT22;3748;48.136;11.538;2022-12-15T06:53:30;-1.00;99.90
7413;DHT22;3748;48.136;11.538;2022-12-15T06:56:01;-0.90;99.90
7413;DHT22;3748;48.136;11.538;2022-12-15T06:58:29;-0.90;99.90
7413;DHT22;3748;48.136;11.538;2022-12-15T07:00:56;-0.90;99.90
7413;DHT22;3748;48.136;11.538;2022-12-15T07:03:23;-0.20;99.90
7413;DHT22;3748;48.136;11.538;2022-12-15T07:06:00;-1.00;99.90
7413;DHT22;3748;48.136;11.538;2022-12-15T07:08:30;-1.10;99.90
7413;DHT22;3748;48.136;11.538;2022-12-15T07:11:02;-1.00;99.90
7413;DHT22;3748;48.136;11.538;2022-12-15T07:13:29;-0.90;99.90
7413;DHT22;3748;48.136;11.538;2022-12-15T07:15:58;-0.90;99.90
7413;DHT22;3748;48.136;11.538;2022-12-15T07:18:24;-0.90;99.90
7413;DHT22;3748;48.136;11.538;2022-12-15T07:20:52;-1.00;99.90
7413;DHT22;3748;48.136;11.538;2022-12-15T07:23:18;-0.80;99.90
7413;DHT22;3748;48.136;11.538;2022-12-15T07:25:47;-1.20;99.90
7413;DHT22;3748;48.136;11.538;2022-12-15T07:28:14;-1.20;99.90
7413;DHT22;3748;48.136;11.538;2022-12-15T07:30:41;-1.30;99.90
7413;DHT22;3748;48.136;11.538;2022-12-15T07:33:08;-1.10;99.90
7413;DHT22;3748;48.136;11.538;2022-12-15T07:35:35;-1.10;99.90
7413;DHT22;3748;48.136;11.538;2022-12-15T07:38:05;-0.50;99.90
7413;DHT22;3748;48.136;11.538;2022-12-15T07:40:32;-0.90;99.90
7413;DHT22;3748;48.136;11.538;2022-12-15T07:43:01;-0.90;99.90
7413;DHT22;3748;48.136;11.538;2022-12-15T07:45:30;-0.90;99.90
7413;DHT22;3748;48.136;11.538;2022-12-15T07:47:57;-0.70;99.90
7413;DHT22;3748;48.136;11.538;2022-12-15T07:50:24;-0.80;99.90
7413;DHT22;3748;48.136;11.538;2022-12-15T07:52:53;-0.80;99.90
7413;DHT22;3748;48.136;11.538;2022-12-15T07:55:20;-0.80;99.90
7413;DHT22;3748;48.136;11.538;2022-12-15T07:57:47;-0.70;99.90
7413;DHT22;3748;48.136;11.538;2022-12-15T08:00:17;-0.90;99.90
7413;DHT22;3748;48.136;11.538;2022-12-15T08:03:00;-0.70;99.90
7413;DHT22;3748;48.136;11.538;2022-12-15T08:05:27;-0.70;99.90
7413;DHT22;3748;48.136;11.538;2022-12-15T08:07:56;-0.80;99.90
7413;DHT22;3748;48.136;11.538;2022-12-15T08:10:23;0.00;99.90
7413;DHT22;3748;48.136;11.538;2022-12-15T08:12:50;-0.70;99.90
7413;DHT22;3748;48.136;11.538;2022-12-15T08:15:19;-0.90;99.90
7413;DHT22;3748;48.136;11.538;2022-12-15T08:17:46;0.00;99.90
7413;DHT22;3748;48.136;11.538;2022-12-15T08:20:16;-0.80;99.90
7413;DHT22;3748;48.136;11.538;2022-12-15T08:22:53;-0.70;99.90
7413;DHT22;3748;48.136;11.538;2022-12-15T08:25:20;-0.80;99.90
7413;DHT22;3748;48.136;11.538;2022-12-15T08:27:49;-0.70;99.90
7413;DHT22;3748;48.136;11.538;2022-12-15T08:30:20;-0.60;99.90
7413;DHT22;3748;48.136;11.538;2022-12-15T08:33:00;-0.50;99.90
7413;DHT22;3748;48.136;11.538;2022-12-15T08:35:26;-0.40;99.90
7413;DHT22;3748;48.136;11.538;2022-12-15T08:37:56;-0.40;99.90
7413;DHT22;3748;48.136;11.538;2022-12-15T08:40:23;-0.30;99.90
7413;DHT22;3748;48.136;11.538;2022-12-15T08:42:50;-0.30;99.90
7413;DHT22;3748;48.136;11.538;2022-12-15T08:45:19;-0.20;99.90
7413;DHT22;3748;48.136;11.538;2022-12-15T08:47:45;-0.10;99.90
7413;DHT22;3748;48.136;11.538;2022-12-15T08:50:13;0.00;99.90
7413;DHT22;3748;48.136;11.538;2022-12-15T08:52:40;0.20;99.90
7413;DHT22;3748;48.136;11.538;2022-12-15T08:55:08;0.30;99.90
7413;DHT22;3748;48.136;11.538;2022-12-15T08:57:36;0.30;99.90
7413;DHT22;3748;48.136;11.538;2022-12-15T09:00:03;0.30;99.90
7413;DHT22;3748;48.136;11.538;2022-12-15T09:02:32;0.40;99.90
7413;DHT22;3748;48.136;11.538;2022-12-15T09:04:59;0.50;99.90
7413;DHT22;3748;48.136;11.538;2022-12-15T09:07:26;0.50;99.90
7413;DHT22;3748;48.136;11.538;2022-12-15T09:09:53;0.60;99.90
7413;DHT22;3748;48.136;11.538;2022-12-15T09:12:21;0.50;99.90
7413;DHT22;3748;48.136;11.538;2022-12-15T09:14:48;0.50;99.90
7413;DHT22;3748;48.136;11.538;2022-12-15T09:17:15;0.40;99.90
7413;DHT22;3748;48.136;11.538;2022-12-15T09:19:43;0.40;99.90
7413;DHT22;3748;48.136;11.538;2022-12-15T09:22:10;0.40;99.90
7413;DHT22;3748;48.136;11.538;2022-12-15T09:24:37;0.40;99.90
7413;DHT22;3748;48.136;11.538;2022-12-15T09:27:15;0.30;99.90
7413;DHT22;3748;48.136;11.538;2022-12-15T09:29:41;0.40;99.90
7413;DHT22;3748;48.136;11.538;2022-12-15T09:32:08;0.30;99.90
7413;DHT22;3748;48.136;11.538;2022-12-15T09:34:35;0.30;99.90
7413;DHT22;3748;48.136;11.538;2022-12-15T09:37:04;0.70;99.90
7413;DHT22;3748;48.136;11.538;2022-12-15T09:39:37;0.20;99.90
7413;DHT22;3748;48.136;11.538;2022-12-15T09:42:04;0.40;99.90
7413;DHT22;3748;48.136;11.538;2022-12-15T09:44:32;0.40;99.90
7413;DHT22;3748;48.136;11.538;2022-12-15T09:47:14;0.50;99.90
7413;DHT22;3748;48.136;11.538;2022-12-15T09:49:49;0.40;99.90
7413;DHT22;3748;48.136;11.538;2022-12-15T09:52:23;0.50;99.90
7413;DHT22;3748;48.136;11.538;2022-12-15T09:54:51;0.60;99.90
7413;DHT22;3748;48.136;11.538;2022-12-15T09:57:26;0.60;99.90
7413;DHT22;3748;48.136;11.538;2022-12-15T10:00:21;0.70;99.90
7413;DHT22;3748;48.136;11.538;2022-12-15T10:03:16;0.70;99.90
7413;DHT22;3748;48.136;11.538;2022-12-15T10:06:05;0.70;99.90
7413;DHT22;3748;48.136;11.538;2022-12-15T10:08:38;0.90;99.90
7413;DHT22;3748;48.136;11.538;2022-12-15T10:11:17;0.90;99.90
7413;DHT22;3748;48.136;11.538;2022-12-15T10:13:51;1.00;99.90
7413;DHT22;3748;48.136;11.538;2022-12-15T10:16:23;1.00;99.90
7413;DHT22;3748;48.136;11.538;2022-12-15T10:19:01;1.10;99.90
7413;DHT22;3748;48.136;11.538;2022-12-15T10:21:31;1.20;99.90
7413;DHT22;3748;48.136;11.538;2022-12-15T10:24:15;1.30;99.90
7413;DHT22;3748;48.136;11.538;2022-12-15T10:26:48;1.20;99.90
7413;DHT22;3748;48.136;11.538;2022-12-15T10:29:27;1.90;99.90
7413;DHT22;3748;48.136;11.538;2022-12-15T10:31:59;1.20;99.90
7413;DHT22;3748;48.136;11.538;2022-12-15T10:34:28;1.20;99.90
7413;DHT22;3748;48.136;11.538;2022-12-15T10:36:57;1.30;99.90
7413;DHT22;3748;48.136;11.538;2022-12-15T10:39:37;1.20;99.90
7413;DHT22;3748;48.136;11.538;2022-12-15T10:42:14;2.00;99.90
7413;DHT22;3748;48.136;11.538;2022-12-15T10:44:49;1.10;99.90
7413;DHT22;3748;48.136;11.538;2022-12-15T10:47:20;1.10;99.90
7413;DHT22;3748;48.136;11.538;2022-12-15T10:49:47;1.10;99.90
7413;DHT22;3748;48.136;11.538;2022-12-15T10:52:23;1.10;99.90
7413;DHT22;3748;48.136;11.538;2022-12-15T10:54:54;1.10;99.90
7413;DHT22;3748;48.136;11.538;2022-12-15T10:57:24;1.10;99.90
7413;DHT22;3748;48.136;11.538;2022-12-15T10:59:54;0.80;99.90
7413;DHT22;3748;48.136;11.538;2022-12-15T11:02:28;1.00;99.90
7413;DHT22;3748;48.136;11.538;2022-12-15T11:04:59;1.20;99.90
7413;DHT22;3748;48.136;11.538;2022-12-15T11:07:32;1.00;99.90
7413;DHT22;3748;48.136;11.538;2022-12-15T11:10:12;0.70;99.90
7413;DHT22;3748;48.136;11.538;2022-12-15T11:12:40;0.90;99.90
7413;DHT22;3748;48.136;11.538;2022-12-15T11:15:43;0.90;99.90
7413;DHT22;3748;48.136;11.538;2022-12-15T11:18:18;0.90;99.90
7413;DHT22;3748;48.136;11.538;2022-12-15T11:20:51;1.40;99.90
7413;DHT22;3748;48.136;11.538;2022-12-15T11:23:22;0.80;99.90
7413;DHT22;3748;48.136;11.538;2022-12-15T11:25:57;0.60;99.90
7413;DHT22;3748;48.136;11.538;2022-12-15T11:28:33;0.60;99.90
7413;DHT22;3748;48.136;11.538;2022-12-15T11:31:19;1.40;99.90
7413;DHT22;3748;48.136;11.538;2022-12-15T11:33:50;0.90;99.90
7413;DHT22;3748;48.136;11.538;2022-12-15T11:36:25;0.70;99.90
7413;DHT22;3748;48.136;11.538;2022-12-15T11:38:59;0.90;99.90
7413;DHT22;3748;48.136;11.538;2022-12-15T11:41:36;0.80;99.90
7413;DHT22;3748;48.136;11.538;2022-12-15T11:44:23;0.70;99.90
7413;DHT22;3748;48.136;11.538;2022-12-15T11:47:00;0.70;99.90
7413;DHT22;3748;48.136;11.538;2022-12-15T11:50:02;0.70;99.90
7413;DHT22;3748;48.136;11.538;2022-12-15T11:52:46;0.80;99.90
7413;DHT22;3748;48.136;11.538;2022-12-15T11:55:19;0.70;99.90
7413;DHT22;3748;48.136;11.538;2022-12-15T12:00:44;0.90;99.90
7413;DHT22;3748;48.136;11.538;2022-12-15T12:03:24;0.90;99.90
7413;DHT22;3748;48.136;11.538;2022-12-15T12:06:11;0.90;99.90
7413;DHT22;3748;48.136;11.538;2022-12-15T12:11:41;0.90;99.90
7413;DHT22;3748;48.136;11.538;2022-12-15T12:14:31;1.50;99.90
7413;DHT22;3748;48.136;11.538;2022-12-15T12:17:06;0.90;99.90
7413;DHT22;3748;48.136;11.538;2022-12-15T12:19:40;0.90;99.90
7413;DHT22;3748;48.136;11.538;2022-12-15T12:22:16;0.60;99.90
7413;DHT22;3748;48.136;11.538;2022-12-15T12:24:51;0.60;99.90
7413;DHT22;3748;48.136;11.538;2022-12-15T12:27:30;0.40;99.90
7413;DHT22;3748;48.136;11.538;2022-12-15T12:30:02;0.40;99.90
7413;DHT22;3748;48.136;11.538;2022-12-15T12:32:40;0.50;99.90
7413;DHT22;3748;48.136;11.538;2022-12-15T12:35:14;0.60;99.90
7413;DHT22;3748;48.136;11.538;2022-12-15T12:37:43;0.60;99.90
7413;DHT22;3748;48.136;11.538;2022-12-15T12:40:18;0.80;99.90
7413;DHT22;3748;48.136;11.538;2022-12-15T12:42:52;0.70;99.90
7413;DHT22;3748;48.136;11.538;2022-12-15T12:45:24;0.70;99.90
7413;DHT22;3748;48.136;11.538;2022-12-15T12:47:54;0.70;99.90
7413;DHT22;3748;48.136;11.538;2022-12-15T12:50:24;0.60;99.90
7413;DHT22;3748;48.136;11.538;2022-12-15T12:52:53;0.60;99.90
7413;DHT22;3748;48.136;11.538;2022-12-15T12:55:25;0.40;99.90
7413;DHT22;3748;48.136;11.538;2022-12-15T12:57:52;0.50;99.90
7413;DHT22;3748;48.136;11.538;2022-12-15T13:03:30;0.50;99.90
7413;DHT22;3748;48.136;11.538;2022-12-15T13:05:57;0.40;99.90
7413;DHT22;3748;48.136;11.538;2022-12-15T13:11:53;0.10;99.90
7413;DHT22;3748;48.136;11.538;2022-12-15T13:14:34;0.00;99.90
7413;DHT22;3748;48.136;11.538;2022-12-15T13:17:08;0.00;99.90
7413;DHT22;3748;48.136;11.538;2022-12-15T13:22:47;0.20;99.90
7413;DHT22;3748;48.136;11.538;2022-12-15T13:25:36;-0.10;99.90
7413;DHT22;3748;48.136;11.538;2022-12-15T13:28:37;0.00;99.90
7413;DHT22;3748;48.136;11.538;2022-12-15T13:31:29;0.10;99.90
7413;DHT22;3748;48.136;11.538;2022-12-15T13:34:25;0.10;99.90
7413;DHT22;3748;48.136;11.538;2022-12-15T13:37:00;0.00;99.90
7413;DHT22;3748;48.136;11.538;2022-12-15T13:42:31;-0.30;99.90
7413;DHT22;3748;48.136;11.538;2022-12-15T13:48:12;-0.10;99.90
7413;DHT22;3748;48.136;11.538;2022-12-15T13:51:01;-0.10;99.90
7413;DHT22;3748;48.136;11.538;2022-12-15T13:53:35;0.00;99.90
7413;DHT22;3748;48.136;11.538;2022-12-15T13:56:14;0.00;99.90
7413;DHT22;3748;48.136;11.538;2022-12-15T13:58:49;-0.10;99.90
7413;DHT22;3748;48.136;11.538;2022-12-15T14:01:21;0.30;99.90
7413;DHT22;3748;48.136;11.538;2022-12-15T14:04:08;-0.10;99.90
7413;DHT22;3748;48.136;11.538;2022-12-15T14:06:45;-0.20;99.90
7413;DHT22;3748;48.136;11.538;2022-12-15T14:09:19;-0.10;99.90
7413;DHT22;3748;48.136;11.538;2022-12-15T14:11:50;-0.10;99.90
7413;DHT22;3748;48.136;11.538;2022-12-15T14:14:20;-0.10;99.90
7413;DHT22;3748;48.136;11.538;2022-12-15T14:16:57;-0.30;99.90
7413;DHT22;3748;48.136;11.538;2022-12-15T14:19:25;-0.30;99.90
7413;DHT22;3748;48.136;11.538;2022-12-15T14:21:54;-0.50;99.90
7413;DHT22;3748;48.136;11.538;2022-12-15T14:24:32;-0.60;99.90
7413;DHT22;3748;48.136;11.538;2022-12-15T14:26:59;-0.50;99.90
7413;DHT22;3748;48.136;11.538;2022-12-15T14:29:26;-0.30;99.90
7413;DHT22;3748;48.136;11.538;2022-12-15T14:31:55;-0.20;99.90
7413;DHT22;3748;48.136;11.538;2022-12-15T14:34:28;-0.40;99.90
7413;DHT22;3748;48.136;11.538;2022-12-15T14:37:00;-0.40;99.90
7413;DHT22;3748;48.136;11.538;2022-12-15T14:39:32;-0.50;99.90
7413;DHT22;3748;48.136;11.538;2022-12-15T14:42:02;-0.40;99.90
7413;DHT22;3748;48.136;11.538;2022-12-15T14:44:37;-0.70;99.90
7413;DHT22;3748;48.136;11.538;2022-12-15T14:47:14;-0.70;99.90
7413;DHT22;3748;48.136;11.538;2022-12-15T14:49:43;-0.70;99.90
7413;DHT22;3748;48.136;11.538;2022-12-15T14:52:23;-0.60;99.90
7413;DHT22;3748;48.136;11.538;2022-12-15T14:54:53;-0.50;99.90
7413;DHT22;3748;48.136;11.538;2022-12-15T14:57:21;-0.60;99.90
7413;DHT22;3748;48.136;11.538;2022-12-15T14:59:49;-0.60;99.90
7413;DHT22;3748;48.136;11.538;2022-12-15T15:02:19;-0.70;99.90
7413;DHT22;3748;48.136;11.538;2022-12-15T15:04:55;-0.70;99.90
7413;DHT22;3748;48.136;11.538;2022-12-15T15:07:26;-0.70;99.90
7413;DHT22;3748;48.136;11.538;2022-12-15T15:09:54;-0.60;99.90
7413;DHT22;3748;48.136;11.538;2022-12-15T15:12:23;-0.70;99.90
7413;DHT22;3748;48.136;11.538;2022-12-15T15:15:17;-0.60;99.90
7413;DHT22;3748;48.136;11.538;2022-12-15T15:17:50;-0.70;99.90
7413;DHT22;3748;48.136;11.538;2022-12-15T15:20:20;-0.30;99.90
7413;DHT22;3748;48.136;11.538;2022-12-15T15:23:10;0.30;99.90
7413;DHT22;3748;48.136;11.538;2022-12-15T15:25:49;0.10;99.90
7413;DHT22;3748;48.136;11.538;2022-12-15T15:28:45;-0.30;99.90
7413;DHT22;3748;48.136;11.538;2022-12-15T15:32:03;-0.40;99.90
7413;DHT22;3748;48.136;11.538;2022-12-15T15:34:35;-0.50;99.90
7413;DHT22;3748;48.136;11.538;2022-12-15T15:37:17;-0.40;99.90
7413;DHT22;3748;48.136;11.538;2022-12-15T15:39:57;-0.60;99.90
7413;DHT22;3748;48.136;11.538;2022-12-15T15:42:39;-0.30;99.90
7413;DHT22;3748;48.136;11.538;2022-12-15T15:45:09;-0.60;99.90
7413;DHT22;3748;48.136;11.538;2022-12-15T15:47:48;-0.50;99.90
7413;DHT22;3748;48.136;11.538;2022-12-15T15:50:25;-0.50;99.90
7413;DHT22;3748;48.136;11.538;2022-12-15T15:55:57;-0.60;99.90
7413;DHT22;3748;48.136;11.538;2022-12-15T15:58:39;-0.60;99.90
7413;DHT22;3748;48.136;11.538;2022-12-15T16:01:07;-0.70;99.90
7413;DHT22;3748;48.136;11.538;2022-12-15T16:03:34;-0.70;99.90
7413;DHT22;3748;48.136;11.538;2022-12-15T16:06:02;-0.50;99.90
7413;DHT22;3748;48.136;11.538;2022-12-15T16:08:31;-0.70;99.90
7413;DHT22;3748;48.136;11.538;2022-12-15T16:11:01;-0.70;99.90
7413;DHT22;3748;48.136;11.538;2022-12-15T16:13:33;-0.70;99.90
7413;DHT22;3748;48.136;11.538;2022-12-15T16:16:00;-0.70;99.90
7413;DHT22;3748;48.136;11.538;2022-12-15T16:18:27;-0.70;99.90
7413;DHT22;3748;48.136;11.538;2022-12-15T16:20:59;-0.80;99.90
7413;DHT22;3748;48.136;11.538;2022-12-15T16:23:28;-0.70;99.90
7413;DHT22;3748;48.136;11.538;2022-12-15T16:26:00;-0.70;99.90
7413;DHT22;3748;48.136;11.538;2022-12-15T16:28:34;-0.80;99.90
7413;DHT22;3748;48.136;11.538;2022-12-15T16:31:10;-0.90;99.90
7413;DHT22;3748;48.136;11.538;2022-12-15T16:33:40;-0.90;99.90
7413;DHT22;3748;48.136;11.538;2022-12-15T16:36:11;-0.80;99.90
7413;DHT22;3748;48.136;11.538;2022-12-15T16:38:39;-0.70;99.90
7413;DHT22;3748;48.136;11.538;2022-12-15T16:41:16;0.10;99.90
7413;DHT22;3748;48.136;11.538;2022-12-15T16:43:46;-0.70;99.90
7413;DHT22;3748;48.136;11.538;2022-12-15T16:46:20;-0.70;99.90
7413;DHT22;3748;48.136;11.538;2022-12-15T16:49:07;-0.80;99.90
7413;DHT22;3748;48.136;11.538;2022-12-15T16:51:41;-0.80;99.90
7413;DHT22;3748;48.136;11.538;2022-12-15T16:54:16;-0.70;99.90
7413;DHT22;3748;48.136;11.538;2022-12-15T16:56:44;-0.70;99.90
7413;DHT22;3748;48.136;11.538;2022-12-15T16:59:16;-0.60;99.90
7413;DHT22;3748;48.136;11.538;2022-12-15T17:01:45;-0.70;99.90
7413;DHT22;3748;48.136;11.538;2022-12-15T17:04:18;-1.20;99.90
7413;DHT22;3748;48.136;11.538;2022-12-15T17:06:46;-0.70;99.90
7413;DHT22;3748;48.136;11.538;2022-12-15T17:09:19;-0.80;99.90
7413;DHT22;3748;48.136;11.538;2022-12-15T17:11:55;-0.70;99.90
7413;DHT22;3748;48.136;11.538;2022-12-15T17:14:26;-0.70;99.90